sensor_id;sensor_type;location;lat;lon;timestamp;temperature;humidity
24091;DHT22;12272;52.426;17.100;2023-04-24T00:04:55;10.90;99.90
24091;DHT22;12272;52.426;17.100;2023-04-24T00:09:58;11.00;99.90
24091;DHT22;12272;52.426;17.100;2023-04-24T00:15:00;11.00;99.90
24091;DHT22;12272;52.426;17.100;2023-04-24T00:20:04;11.00;99.90
24091;DHT22;12272;52.426;17.100;2023-04-24T00:25:09;11.10;99.90
24091;DHT22;12272;52.426;17.100;2023-04-24T00:30:12;11.20;99.90
24091;DHT22;12272;52.426;17.100;2023-04-24T00:35:14;11.20;99.90
24091;DHT22;12272;52.426;17.100;2023-04-24T00:40:17;11.30;99.90
24091;DHT22;12272;52.426;17.100;2023-04-24T00:45:20;11.30;99.90
24091;DHT22;12272;52.426;17.100;2023-04-24T00:50:24;11.30;99.90
24091;DHT22;12272;52.426;17.100;2023-04-24T00:55:26;11.40;99.90
24091;DHT22;12272;52.426;17.100;2023-04-24T01:00:30;11.40;99.90
24091;DHT22;12272;52.426;17.100;2023-04-24T01:05:33;11.40;99.90
24091;DHT22;12272;52.426;17.100;2023-04-24T01:10:36;11.40;99.90
24091;DHT22;12272;52.426;17.100;2023-04-24T01:15:40;11.40;99.90
24091;DHT22;12272;52.426;17.100;2023-04-24T01:20:43;11.50;99.90
24091;DHT22;12272;52.426;17.100;2023-04-24T01:25:48;11.50;99.90
24091;DHT22;12272;52.426;17.100;2023-04-24T01:30:51;11.60;99.90
24091;DHT22;12272;52.426;17.100;2023-04-24T01:35:57;11.60;99.90
24091;DHT22;12272;52.426;17.100;2023-04-24T01:41:00;11.60;99.90
24091;DHT22;12272;52.426;17.100;2023-04-24T01:46:03;11.50;99.90
24091;DHT22;12272;52.426;17.100;2023-04-24T01:51:05;11.70;99.90
24091;DHT22;12272;52.426;17.100;2023-04-24T01:56:08;11.80;99.90
24091;DHT22;12272;52.426;17.100;2023-04-24T02:01:21;11.70;99.90
24091;DHT22;12272;52.426;17.100;2023-04-24T02:06:25;11.80;99.90
24091;DHT22;12272;52.426;17.100;2023-04-24T02:11:28;12.00;99.90
24091;DHT22;12272;52.426;17.100;2023-04-24T02:16:30;12.30;99.90
24091;DHT22;12272;52.426;17.100;2023-04-24T02:21:34;12.30;99.90
24091;DHT22;12272;52.426;17.100;2023-04-24T02:26:37;12.20;99.90
24091;DHT22;12272;52.426;17.100;2023-04-24T02:31:39;12.10;99.90
24091;DHT22;12272;52.426;17.100;2023-04-24T02:36:42;12.00;99.90
24091;DHT22;12272;52.426;17.100;2023-04-24T02:41:45;12.00;99.90
24091;DHT22;12272;52.426;17.100;2023-04-24T02:46:47;12.00;99.90
24091;DHT22;12272;52.426;17.100;2023-04-24T02:51:51;12.10;99.90
24091;DHT22;12272;52.426;17.100;2023-04-24T02:56:54;12.10;99.90
24091;DHT22;12272;52.426;17.100;2023-04-24T03:01:57;12.10;99.90
24091;DHT22;12272;52.426;17.100;2023-04-24T03:06:59;12.00;99.90
24091;DHT22;12272;52.426;17.100;2023-04-24T03:12:03;12.10;99.90
24091;DHT22;12272;52.426;17.100;2023-04-24T03:17:05;12.00;99.90
24091;DHT22;12272;52.426;17.100;2023-04-24T03:22:08;11.90;99.90
24091;DHT22;12272;52.426;17.100;2023-04-24T03:27:12;12.00;99.90
24091;DHT22;12272;52.426;17.100;2023-04-24T03:32:35;12.20;99.90
24091;DHT22;12272;52.426;17.100;2023-04-24T03:37:38;12.30;99.90
24091;DHT22;12272;52.426;17.100;2023-04-24T03:43:03;12.30;99.90
24091;DHT22;12272;52.426;17.100;2023-04-24T03:48:06;12.30;99.90
24091;DHT22;12272;52.426;17.100;2023-04-24T03:53:10;12.40;99.90
24091;DHT22;12272;52.426;17.100;2023-04-24T03:58:15;12.40;99.90
24091;DHT22;12272;52.426;17.100;2023-04-24T04:03:18;12.30;99.90
24091;DHT22;12272;52.426;17.100;2023-04-24T04:08:21;12.10;99.90
24091;DHT22;12272;52.426;17.100;2023-04-24T04:13:24;12.20;99.90
24091;DHT22;12272;52.426;17.100;2023-04-24T04:18:26;12.40;99.90
24091;DHT22;12272;52.426;17.100;2023-04-24T04:23:29;12.50;99.90
24091;DHT22;12272;52.426;17.100;2023-04-24T04:28:52;12.10;99.90
24091;DHT22;12272;52.426;17.100;2023-04-24T04:33:55;11.90;99.90
24091;DHT22;12272;52.426;17.100;2023-04-24T04:38:58;11.80;99.90
24091;DHT22;12272;52.426;17.100;2023-04-24T04:44:30;11.90;99.90
24091;DHT22;12272;52.426;17.100;2023-04-24T04:49:34;12.00;99.90
24091;DHT22;12272;52.426;17.100;2023-04-24T04:54:40;12.20;99.90
24091;DHT22;12272;52.426;17.100;2023-04-24T04:59:42;12.30;99.90
24091;DHT22;12272;52.426;17.100;2023-04-24T05:04:53;12.50;99.90
24091;DHT22;12272;52.426;17.100;2023-04-24T05:09:57;12.60;99.90
24091;DHT22;12272;52.426;17.100;2023-04-24T05:14:59;12.60;99.90
24091;DHT22;12272;52.426;17.100;2023-04-24T05:20:03;12.80;99.90
24091;DHT22;12272;52.426;17.100;2023-04-24T05:25:08;12.80;99.90
24091;DHT22;12272;52.426;17.100;2023-04-24T05:30:16;12.90;99.90
24091;DHT22;12272;52.426;17.100;2023-04-24T05:35:19;13.10;99.90
24091;DHT22;12272;52.426;17.100;2023-04-24T05:40:21;13.30;99.90
24091;DHT22;12272;52.426;17.100;2023-04-24T05:45:24;13.40;99.90
24091;DHT22;12272;52.426;17.100;2023-04-24T05:50:27;13.70;99.90
24091;DHT22;12272;52.426;17.100;2023-04-24T05:55:31;13.90;99.90
24091;DHT22;12272;52.426;17.100;2023-04-24T06:00:35;14.10;99.90
24091;DHT22;12272;52.426;17.100;2023-04-24T06:05:42;14.40;99.90
24091;DHT22;12272;52.426;17.100;2023-04-24T06:10:45;14.50;99.90
24091;DHT22;12272;52.426;17.100;2023-04-24T06:15:50;14.60;99.90
24091;DHT22;12272;52.426;17.100;2023-04-24T06:21:09;14.70;99.90
24091;DHT22;12272;52.426;17.100;2023-04-24T06:26:12;14.90;99.90
24091;DHT22;12272;52.426;17.100;2023-04-24T06:31:14;15.20;99.90
24091;DHT22;12272;52.426;17.100;2023-04-24T06:36:17;15.40;99.90
24091;DHT22;12272;52.426;17.100;2023-04-24T06:41:20;15.50;99.90
24091;DHT22;12272;52.426;17.100;2023-04-24T06:46:22;15.60;99.90
24091;DHT22;12272;52.426;17.100;2023-04-24T06:51:28;15.60;99.90
24091;DHT22;12272;52.426;17.100;2023-04-24T06:56:31;15.60;99.90
24091;DHT22;12272;52.426;17.100;2023-04-24T07:01:33;15.70;99.90
24091;DHT22;12272;52.426;17.100;2023-04-24T07:06:36;15.80;99.90
24091;DHT22;12272;52.426;17.100;2023-04-24T07:11:40;15.80;99.90
24091;DHT22;12272;52.426;17.100;2023-04-24T07:16:43;15.70;99.90
24091;DHT22;12272;52.426;17.100;2023-04-24T07:21:46;15.70;99.90
24091;DHT22;12272;52.426;17.100;2023-04-24T07:26:48;15.80;99.90
24091;DHT22;12272;52.426;17.100;2023-04-24T07:31:53;16.00;99.90
24091;DHT22;12272;52.426;17.100;2023-04-24T07:36:56;16.30;99.90
24091;DHT22;12272;52.426;17.100;2023-04-24T07:41:59;16.60;99.90
24091;DHT22;12272;52.426;17.100;2023-04-24T07:47:02;16.90;99.90
24091;DHT22;12272;52.426;17.100;2023-04-24T07:52:04;17.30;99.90
24091;DHT22;12272;52.426;17.100;2023-04-24T07:57:07;17.40;99.90
24091;DHT22;12272;52.426;17.100;2023-04-24T08:02:10;17.30;99.90
24091;DHT22;12272;52.426;17.100;2023-04-24T08:07:13;17.40;99.90
24091;DHT22;12272;52.426;17.100;2023-04-24T08:12:15;17.70;99.90
24091;DHT22;12272;52.426;17.100;2023-04-24T08:17:18;17.70;99.90
24091;DHT22;12272;52.426;17.100;2023-04-24T08:22:20;17.80;99.90
24091;DHT22;12272;52.426;17.100;2023-04-24T08:27:23;17.90;99.90
24091;DHT22;12272;52.426;17.100;2023-04-24T08:32:26;17.90;99.90
24091;DHT22;12272;52.426;17.100;2023-04-24T08:37:32;18.00;99.90
24091;DHT22;12272;52.426;17.100;2023-04-24T08:42:37;18.00;99.90
24091;DHT22;12272;52.426;17.100;2023-04-24T08:47:40;18.00;99.90
24091;DHT22;12272;52.426;17.100;2023-04-24T08:52:43;17.90;99.90
24091;DHT22;12272;52.426;17.100;2023-04-24T08:57:50;18.00;99.90
24091;DHT22;12272;52.426;17.100;2023-04-24T09:02:55;17.90;99.90
24091;DHT22;12272;52.426;17.100;2023-04-24T09:07:59;17.70;99.90
24091;DHT22;12272;52.426;17.100;2023-04-24T09:13:10;17.70;99.90
24091;DHT22;12272;52.426;17.100;2023-04-24T09:18:13;18.00;99.90
24091;DHT22;12272;52.426;17.100;2023-04-24T09:23:18;18.20;99.90
24091;DHT22;12272;52.426;17.100;2023-04-24T09:28:32;18.30;99.90
24091;DHT22;12272;52.426;17.100;2023-04-24T09:33:35;18.40;99.50
24091;DHT22;12272;52.426;17.100;2023-04-24T09:38:38;18.60;99.90
24091;DHT22;12272;52.426;17.100;2023-04-24T09:43:41;18.60;99.50
24091;DHT22;12272;52.426;17.100;2023-04-24T09:48:44;18.70;99.50
24091;DHT22;12272;52.426;17.100;2023-04-24T09:53:46;18.70;99.20
24091;DHT22;12272;52.426;17.100;2023-04-24T09:59:04;18.70;99.00
24091;DHT22;12272;52.426;17.100;2023-04-24T10:04:21;18.90;98.70
24091;DHT22;12272;52.426;17.100;2023-04-24T10:09:26;19.00;98.00
24091;DHT22;12272;52.426;17.100;2023-04-24T10:14:29;19.30;98.30
24091;DHT22;12272;52.426;17.100;2023-04-24T10:19:33;19.30;97.50
24091;DHT22;12272;52.426;17.100;2023-04-24T10:24:35;19.50;96.90
24091;DHT22;12272;52.426;17.100;2023-04-24T10:29:41;19.50;96.20
24091;DHT22;12272;52.426;17.100;2023-04-24T10:34:46;19.40;96.50
24091;DHT22;12272;52.426;17.100;2023-04-24T10:39:48;19.70;96.30
24091;DHT22;12272;52.426;17.100;2023-04-24T10:44:53;19.60;95.00
24091;DHT22;12272;52.426;17.100;2023-04-24T10:49:59;19.40;95.20
24091;DHT22;12272;52.426;17.100;2023-04-24T10:55:02;19.40;96.00
24091;DHT22;12272;52.426;17.100;2023-04-24T11:00:20;19.50;95.80
24091;DHT22;12272;52.426;17.100;2023-04-24T11:05:50;19.80;95.00
24091;DHT22;12272;52.426;17.100;2023-04-24T11:10:59;20.10;93.90
24091;DHT22;12272;52.426;17.100;2023-04-24T11:21:18;20.30;90.50
24091;DHT22;12272;52.426;17.100;2023-04-24T11:31:39;20.20;87.50
24091;DHT22;12272;52.426;17.100;2023-04-24T11:36:48;20.20;90.30
24091;DHT22;12272;52.426;17.100;2023-04-24T11:41:51;20.20;90.20
24091;DHT22;12272;52.426;17.100;2023-04-24T11:46:56;20.10;91.50
24091;DHT22;12272;52.426;17.100;2023-04-24T11:52:02;19.90;93.10
24091;DHT22;12272;52.426;17.100;2023-04-24T11:57:05;19.60;92.90
24091;DHT22;12272;52.426;17.100;2023-04-24T12:02:08;19.40;92.30
24091;DHT22;12272;52.426;17.100;2023-04-24T12:07:11;19.30;93.90
24091;DHT22;12272;52.426;17.100;2023-04-24T12:12:15;19.20;94.70
24091;DHT22;12272;52.426;17.100;2023-04-24T12:17:33;18.90;92.30
24091;DHT22;12272;52.426;17.100;2023-04-24T12:22:53;18.70;94.80
24091;DHT22;12272;52.426;17.100;2023-04-24T12:33:05;18.40;96.20
24091;DHT22;12272;52.426;17.100;2023-04-24T12:38:09;18.20;97.60
24091;DHT22;12272;52.426;17.100;2023-04-24T12:43:18;18.00;98.50
24091;DHT22;12272;52.426;17.100;2023-04-24T12:48:21;17.90;98.60
24091;DHT22;12272;52.426;17.100;2023-04-24T12:53:24;17.80;98.20
24091;DHT22;12272;52.426;17.100;2023-04-24T12:58:28;17.70;98.90
24091;DHT22;12272;52.426;17.100;2023-04-24T13:03:31;17.80;99.60
24091;DHT22;12272;52.426;17.100;2023-04-24T13:08:33;18.10;98.40
24091;DHT22;12272;52.426;17.100;2023-04-24T13:13:36;18.40;98.30
24091;DHT22;12272;52.426;17.100;2023-04-24T13:18:38;18.60;97.00
24091;DHT22;12272;52.426;17.100;2023-04-24T13:23:41;18.60;97.10
24091;DHT22;12272;52.426;17.100;2023-04-24T13:28:45;18.50;96.30
24091;DHT22;12272;52.426;17.100;2023-04-24T13:33:47;18.60;96.20
24091;DHT22;12272;52.426;17.100;2023-04-24T13:38:50;18.60;96.10
24091;DHT22;12272;52.426;17.100;2023-04-24T13:43:53;18.60;95.90
24091;DHT22;12272;52.426;17.100;2023-04-24T13:48:55;18.70;94.60
24091;DHT22;12272;52.426;17.100;2023-04-24T13:53:59;18.70;93.80
24091;DHT22;12272;52.426;17.100;2023-04-24T13:59:02;18.70;92.30
24091;DHT22;12272;52.426;17.100;2023-04-24T14:04:04;18.60;96.20
24091;DHT22;12272;52.426;17.100;2023-04-24T14:09:07;18.50;94.30
24091;DHT22;12272;52.426;17.100;2023-04-24T14:14:10;18.40;93.60
24091;DHT22;12272;52.426;17.100;2023-04-24T14:19:13;18.20;93.30
24091;DHT22;12272;52.426;17.100;2023-04-24T14:24:16;18.00;93.80
24091;DHT22;12272;52.426;17.100;2023-04-24T14:29:19;18.20;99.90
24091;DHT22;12272;52.426;17.100;2023-04-24T14:34:21;18.50;98.10
24091;DHT22;12272;52.426;17.100;2023-04-24T14:39:24;18.80;99.90
24091;DHT22;12272;52.426;17.100;2023-04-24T14:44:27;18.90;99.20
24091;DHT22;12272;52.426;17.100;2023-04-24T14:49:29;19.00;99.40
24091;DHT22;12272;52.426;17.100;2023-04-24T14:54:32;18.90;97.70
24091;DHT22;12272;52.426;17.100;2023-04-24T14:59:34;18.60;99.50
24091;DHT22;12272;52.426;17.100;2023-04-24T15:04:37;18.40;99.60
24091;DHT22;12272;52.426;17.100;2023-04-24T15:09:40;18.40;99.90
24091;DHT22;12272;52.426;17.100;2023-04-24T15:14:42;18.40;99.90
24091;DHT22;12272;52.426;17.100;2023-04-24T15:19:45;18.40;99.20
24091;DHT22;12272;52.426;17.100;2023-04-24T15:24:47;18.40;99.50
24091;DHT22;12272;52.426;17.100;2023-04-24T15:29:50;18.40;99.90
24091;DHT22;12272;52.426;17.100;2023-04-24T15:34:52;18.40;97.80
24091;DHT22;12272;52.426;17.100;2023-04-24T15:40:10;18.50;97.30
24091;DHT22;12272;52.426;17.100;2023-04-24T15:45:15;18.50;96.50
24091;DHT22;12272;52.426;17.100;2023-04-24T15:50:18;18.50;97.00
24091;DHT22;12272;52.426;17.100;2023-04-24T15:55:22;18.70;96.70
24091;DHT22;12272;52.426;17.100;2023-04-24T16:00:25;18.50;97.40
24091;DHT22;12272;52.426;17.100;2023-04-24T16:05:30;18.40;98.60
24091;DHT22;12272;52.426;17.100;2023-04-24T16:10:32;18.40;99.20
24091;DHT22;12272;52.426;17.100;2023-04-24T16:15:35;18.40;99.40
24091;DHT22;12272;52.426;17.100;2023-04-24T16:20:38;18.10;98.30
24091;DHT22;12272;52.426;17.100;2023-04-24T16:25:40;18.00;98.30
24091;DHT22;12272;52.426;17.100;2023-04-24T16:30:43;17.40;99.90
24091;DHT22;12272;52.426;17.100;2023-04-24T16:35:45;17.10;99.90
24091;DHT22;12272;52.426;17.100;2023-04-24T16:40:48;17.10;99.90
24091;DHT22;12272;52.426;17.100;2023-04-24T16:45:51;16.70;99.90
24091;DHT22;12272;52.426;17.100;2023-04-24T16:50:53;16.60;99.90
24091;DHT22;12272;52.426;17.100;2023-04-24T16:55:56;16.40;99.90
24091;DHT22;12272;52.426;17.100;2023-04-24T17:00:58;15.80;99.90
24091;DHT22;12272;52.426;17.100;2023-04-24T17:06:01;15.50;99.90
24091;DHT22;12272;52.426;17.100;2023-04-24T17:11:04;15.30;99.90
24091;DHT22;12272;52.426;17.100;2023-04-24T17:16:07;15.20;99.90
24091;DHT22;12272;52.426;17.100;2023-04-24T17:21:09;14.90;99.90
24091;DHT22;12272;52.426;17.100;2023-04-24T17:26:12;14.80;99.90
24091;DHT22;12272;52.426;17.100;2023-04-24T17:31:15;14.70;99.90
24091;DHT22;12272;52.426;17.100;2023-04-24T17:36:17;14.80;99.90
24091;DHT22;12272;52.426;17.100;2023-04-24T17:41:20;15.30;99.90
24091;DHT22;12272;52.426;17.100;2023-04-24T17:46:22;15.90;99.90
24091;DHT22;12272;52.426;17.100;2023-04-24T17:51:25;16.30;99.90
24091;DHT22;12272;52.426;17.100;2023-04-24T17:56:28;16.40;99.90
24091;DHT22;12272;52.426;17.100;2023-04-24T18:01:31;16.50;99.90
24091;DHT22;12272;52.426;17.100;2023-04-24T18:06:34;16.70;99.90
24091;DHT22;12272;52.426;17.100;2023-04-24T18:11:36;16.70;99.90
24091;DHT22;12272;52.426;17.100;2023-04-24T18:16:39;16.70;99.10
24091;DHT22;12272;52.426;17.100;2023-04-24T18:21:42;16.50;99.20
24091;DHT22;12272;52.426;17.100;2023-04-24T18:26:44;16.80;98.60
24091;DHT22;12272;52.426;17.100;2023-04-24T18:31:47;17.00;97.00
24091;DHT22;12272;52.426;17.100;2023-04-24T18:36:50;14.10;99.90
24091;DHT22;12272;52.426;17.100;2023-04-24T18:41:54;13.40;99.90
24091;DHT22;12272;52.426;17.100;2023-04-24T18:46:56;12.90;99.90
24091;DHT22;12272;52.426;17.100;2023-04-24T18:51:59;12.50;99.90
24091;DHT22;12272;52.426;17.100;2023-04-24T18:57:03;12.40;99.90
24091;DHT22;12272;52.426;17.100;2023-04-24T19:02:06;12.10;99.90
24091;DHT22;12272;52.426;17.100;2023-04-24T19:07:08;12.00;99.90
24091;DHT22;12272;52.426;17.100;2023-04-24T19:12:11;11.90;99.90
24091;DHT22;12272;52.426;17.100;2023-04-24T19:17:13;11.80;99.90
24091;DHT22;12272;52.426;17.100;2023-04-24T19:22:19;11.60;99.90
24091;DHT22;12272;52.426;17.100;2023-04-24T19:27:22;11.60;99.90
24091;DHT22;12272;52.426;17.100;2023-04-24T19:32:24;11.70;99.90
24091;DHT22;12272;52.426;17.100;2023-04-24T19:37:27;11.80;99.90
24091;DHT22;12272;52.426;17.100;2023-04-24T19:42:30;11.60;99.90
24091;DHT22;12272;52.426;17.100;2023-04-24T19:47:47;11.50;99.90
24091;DHT22;12272;52.426;17.100;2023-04-24T19:52:50;11.30;99.90
24091;DHT22;12272;52.426;17.100;2023-04-24T19:57:52;11.30;99.90
24091;DHT22;12272;52.426;17.100;2023-04-24T20:02:55;11.20;99.90
24091;DHT22;12272;52.426;17.100;2023-04-24T20:07:58;11.10;99.90
24091;DHT22;12272;52.426;17.100;2023-04-24T20:13:00;11.10;99.90
24091;DHT22;12272;52.426;17.100;2023-04-24T20:18:03;11.00;99.90
24091;DHT22;12272;52.426;17.100;2023-04-24T20:23:05;11.00;99.90
24091;DHT22;12272;52.426;17.100;2023-04-24T20:28:08;10.90;99.90
24091;DHT22;12272;52.426;17.100;2023-04-24T20:33:10;10.90;99.90
24091;DHT22;12272;52.426;17.100;2023-04-24T20:38:13;10.90;99.90
24091;DHT22;12272;52.426;17.100;2023-04-24T20:43:16;10.90;99.90
24091;DHT22;12272;52.426;17.100;2023-04-24T20:48:19;11.40;99.90
24091;DHT22;12272;52.426;17.100;2023-04-24T20:53:21;11.70;99.90
24091;DHT22;12272;52.426;17.100;2023-04-24T20:58:24;11.90;99.90
24091;DHT22;12272;52.426;17.100;2023-04-24T21:03:26;12.40;99.90
24091;DHT22;12272;52.426;17.100;2023-04-24T21:08:29;12.40;99.90
24091;DHT22;12272;52.426;17.100;2023-04-24T21:13:32;13.00;99.90
24091;DHT22;12272;52.426;17.100;2023-04-24T21:18:34;13.20;99.90
24091;DHT22;12272;52.426;17.100;2023-04-24T21:23:42;13.40;99.90
24091;DHT22;12272;52.426;17.100;2023-04-24T21:28:44;13.80;99.90
24091;DHT22;12272;52.426;17.100;2023-04-24T21:33:47;14.10;99.90
24091;DHT22;12272;52.426;17.100;2023-04-24T21:38:50;14.90;99.90
24091;DHT22;12272;52.426;17.100;2023-04-24T21:43:52;15.70;99.90
24091;DHT22;12272;52.426;17.100;2023-04-24T21:48:55;16.20;99.90
24091;DHT22;12272;52.426;17.100;2023-04-24T21:53:58;16.50;99.90
24091;DHT22;12272;52.426;17.100;2023-04-24T21:59:01;16.90;99.90
24091;DHT22;12272;52.426;17.100;2023-04-24T22:09:06;17.70;99.90
24091;DHT22;12272;52.426;17.100;2023-04-24T22:14:09;17.80;99.90
24091;DHT22;12272;52.426;17.100;2023-04-24T22:19:13;17.70;99.90
24091;DHT22;12272;52.426;17.100;2023-04-24T22:24:17;17.90;99.90
24091;DHT22;12272;52.426;17.100;2023-04-24T22:29:19;18.30;99.90
24091;DHT22;12272;52.426;17.100;2023-04-24T22:34:22;18.10;99.90
24091;DHT22;12272;52.426;17.100;2023-04-24T22:39:25;18.00;98.60
24091;DHT22;12272;52.426;17.100;2023-04-24T22:44:27;17.90;99.90
24091;DHT22;12272;52.426;17.100;2023-04-24T22:49:30;17.40;96.50
24091;DHT22;12272;52.426;17.100;2023-04-24T22:54:33;17.50;99.90
24091;DHT22;12272;52.426;17.100;2023-04-24T22:59:37;17.40;99.90
24091;DHT22;12272;52.426;17.100;2023-04-24T23:04:40;17.30;97.50
24091;DHT22;12272;52.426;17.100;2023-04-24T23:09:42;17.30;98.30
24091;DHT22;12272;52.426;17.100;2023-04-24T23:14:44;17.40;99.90
24091;DHT22;12272;52.426;17.100;2023-04-24T23:19:47;17.40;99.90
24091;DHT22;12272;52.426;17.100;2023-04-24T23:24:50;17.20;99.90
24091;DHT22;12272;52.426;17.100;2023-04-24T23:29:52;17.30;99.90
24091;DHT22;12272;52.426;17.100;2023-04-24T23:34:55;17.40;99.90
24091;DHT22;12272;52.426;17.100;2023-04-24T23:39:57;16.70;99.90
24091;DHT22;12272;52.426;17.100;2023-04-24T23:45:00;17.10;99.90
24091;DHT22;12272;52.426;17.100;2023-04-24T23:50:03;17.10;99.90
24091;DHT22;12272;52.426;17.100;2023-04-24T23:55:06;17.10;99.90
